sensor_id;sensor_type;location;lat;lon;timestamp;P1;durP1;ratioP1;P2;durP2;ratioP2
39864;SDS011;25538;48.392;9.976;2022-07-01T00:00:21;12.43;;;10.87;;
39864;SDS011;25538;48.392;9.976;2022-07-01T00:02:47;13.03;;;11.73;;
39864;SDS011;25538;48.392;9.976;2022-07-01T00:05:13;11.30;;;10.30;;
39864;SDS011;25538;48.392;9.976;2022-07-01T00:07:39;11.13;;;10.20;;
39864;SDS011;25538;48.392;9.976;2022-07-01T00:10:05;11.67;;;10.57;;
39864;SDS011;25538;48.392;9.976;2022-07-01T00:12:31;10.02;;;9.15;;
39864;SDS011;25538;48.392;9.976;2022-07-01T00:14:57;8.77;;;8.00;;
39864;SDS011;25538;48.392;9.976;2022-07-01T00:17:23;9.35;;;8.52;;
39864;SDS011;25538;48.392;9.976;2022-07-01T00:19:49;7.17;;;6.63;;
39864;SDS011;25538;48.392;9.976;2022-07-01T00:22:15;9.38;;;8.57;;
39864;SDS011;25538;48.392;9.976;2022-07-01T00:24:42;8.38;;;7.57;;
39864;SDS011;25538;48.392;9.976;2022-07-01T00:27:09;8.55;;;7.75;;
39864;SDS011;25538;48.392;9.976;2022-07-01T00:29:35;8.00;;;7.30;;
39864;SDS011;25538;48.392;9.976;2022-07-01T00:32:01;7.93;;;7.35;;
39864;SDS011;25538;48.392;9.976;2022-07-01T00:34:27;8.30;;;7.60;;
39864;SDS011;25538;48.392;9.976;2022-07-01T00:36:53;8.43;;;6.80;;
39864;SDS011;25538;48.392;9.976;2022-07-01T00:39:19;7.05;;;6.45;;
39864;SDS011;25538;48.392;9.976;2022-07-01T00:41:45;6.13;;;5.73;;
39864;SDS011;25538;48.392;9.976;2022-07-01T00:44:20;7.60;;;7.10;;
39864;SDS011;25538;48.392;9.976;2022-07-01T00:46:46;6.10;;;5.60;;
39864;SDS011;25538;48.392;9.976;2022-07-01T00:49:15;7.22;;;6.53;;
39864;SDS011;25538;48.392;9.976;2022-07-01T00:51:41;8.93;;;8.02;;
39864;SDS011;25538;48.392;9.976;2022-07-01T00:54:09;8.48;;;7.78;;
39864;SDS011;25538;48.392;9.976;2022-07-01T00:56:35;9.18;;;8.43;;
39864;SDS011;25538;48.392;9.976;2022-07-01T00:59:02;25.40;;;9.50;;
39864;SDS011;25538;48.392;9.976;2022-07-01T01:01:28;8.07;;;7.37;;
39864;SDS011;25538;48.392;9.976;2022-07-01T01:03:54;8.00;;;7.40;;
39864;SDS011;25538;48.392;9.976;2022-07-01T01:06:20;9.15;;;8.32;;
39864;SDS011;25538;48.392;9.976;2022-07-01T01:08:47;10.23;;;9.25;;
39864;SDS011;25538;48.392;9.976;2022-07-01T01:11:14;11.75;;;10.68;;
39864;SDS011;25538;48.392;9.976;2022-07-01T01:13:43;12.40;;;11.30;;
39864;SDS011;25538;48.392;9.976;2022-07-01T01:16:16;12.23;;;10.93;;
39864;SDS011;25538;48.392;9.976;2022-07-01T01:18:46;14.15;;;12.65;;
39864;SDS011;25538;48.392;9.976;2022-07-01T01:21:12;29.10;;;17.30;;
39864;SDS011;25538;48.392;9.976;2022-07-01T01:23:39;18.45;;;16.55;;
39864;SDS011;25538;48.392;9.976;2022-07-01T01:26:14;38.45;;;22.75;;
39864;SDS011;25538;48.392;9.976;2022-07-01T01:28:44;33.30;;;20.98;;
39864;SDS011;25538;48.392;9.976;2022-07-01T01:31:10;17.95;;;15.63;;
39864;SDS011;25538;48.392;9.976;2022-07-01T01:33:36;28.20;;;19.40;;
39864;SDS011;25538;48.392;9.976;2022-07-01T01:36:03;19.98;;;16.48;;
39864;SDS011;25538;48.392;9.976;2022-07-01T01:38:32;25.45;;;17.85;;
39864;SDS011;25538;48.392;9.976;2022-07-01T01:41:02;23.67;;;18.15;;
39864;SDS011;25538;48.392;9.976;2022-07-01T01:43:28;21.83;;;17.20;;
39864;SDS011;25538;48.392;9.976;2022-07-01T01:45:55;17.90;;;16.00;;
39864;SDS011;25538;48.392;9.976;2022-07-01T01:48:21;17.15;;;15.48;;
39864;SDS011;25538;48.392;9.976;2022-07-01T01:50:47;18.07;;;15.27;;
39864;SDS011;25538;48.392;9.976;2022-07-01T01:53:13;16.30;;;14.80;;
39864;SDS011;25538;48.392;9.976;2022-07-01T01:55:39;15.30;;;13.90;;
39864;SDS011;25538;48.392;9.976;2022-07-01T01:58:04;16.17;;;14.53;;
39864;SDS011;25538;48.392;9.976;2022-07-01T02:00:30;18.67;;;16.53;;
39864;SDS011;25538;48.392;9.976;2022-07-01T02:02:56;20.33;;;18.43;;
39864;SDS011;25538;48.392;9.976;2022-07-01T02:05:22;21.67;;;19.27;;
39864;SDS011;25538;48.392;9.976;2022-07-01T02:07:48;21.43;;;17.07;;
39864;SDS011;25538;48.392;9.976;2022-07-01T02:10:14;20.13;;;17.63;;
39864;SDS011;25538;48.392;9.976;2022-07-01T02:12:40;17.47;;;15.20;;
39864;SDS011;25538;48.392;9.976;2022-07-01T02:15:06;16.93;;;15.30;;
39864;SDS011;25538;48.392;9.976;2022-07-01T02:17:33;16.83;;;15.05;;
39864;SDS011;25538;48.392;9.976;2022-07-01T02:19:59;10.20;;;9.17;;
39864;SDS011;25538;48.392;9.976;2022-07-01T02:22:25;7.50;;;6.90;;
39864;SDS011;25538;48.392;9.976;2022-07-01T02:24:51;7.07;;;6.37;;
39864;SDS011;25538;48.392;9.976;2022-07-01T02:27:17;6.63;;;5.80;;
39864;SDS011;25538;48.392;9.976;2022-07-01T02:29:44;6.97;;;6.28;;
39864;SDS011;25538;48.392;9.976;2022-07-01T02:32:10;6.53;;;5.80;;
39864;SDS011;25538;48.392;9.976;2022-07-01T02:34:36;11.48;;;8.23;;
39864;SDS011;25538;48.392;9.976;2022-07-01T02:37:02;9.25;;;8.25;;
39864;SDS011;25538;48.392;9.976;2022-07-01T02:39:28;9.30;;;7.38;;
39864;SDS011;25538;48.392;9.976;2022-07-01T02:41:54;7.33;;;6.50;;
39864;SDS011;25538;48.392;9.976;2022-07-01T02:44:38;7.22;;;6.50;;
39864;SDS011;25538;48.392;9.976;2022-07-01T02:47:04;5.07;;;4.67;;
39864;SDS011;25538;48.392;9.976;2022-07-01T02:49:31;5.78;;;5.25;;
39864;SDS011;25538;48.392;9.976;2022-07-01T02:51:56;6.20;;;5.70;;
39864;SDS011;25538;48.392;9.976;2022-07-01T02:54:22;12.80;;;7.33;;
39864;SDS011;25538;48.392;9.976;2022-07-01T02:56:48;6.60;;;5.63;;
39864;SDS011;25538;48.392;9.976;2022-07-01T02:59:14;8.70;;;6.70;;
39864;SDS011;25538;48.392;9.976;2022-07-01T03:01:40;10.57;;;7.30;;
39864;SDS011;25538;48.392;9.976;2022-07-01T03:04:06;8.07;;;7.27;;
39864;SDS011;25538;48.392;9.976;2022-07-01T03:06:32;7.30;;;6.60;;
39864;SDS011;25538;48.392;9.976;2022-07-01T03:08:58;6.77;;;6.17;;
39864;SDS011;25538;48.392;9.976;2022-07-01T03:11:24;4.87;;;4.50;;
39864;SDS011;25538;48.392;9.976;2022-07-01T03:13:49;5.90;;;5.40;;
39864;SDS011;25538;48.392;9.976;2022-07-01T03:16:15;6.00;;;5.17;;
39864;SDS011;25538;48.392;9.976;2022-07-01T03:18:41;5.13;;;4.70;;
39864;SDS011;25538;48.392;9.976;2022-07-01T03:21:07;7.90;;;6.67;;
39864;SDS011;25538;48.392;9.976;2022-07-01T03:23:33;6.17;;;5.67;;
39864;SDS011;25538;48.392;9.976;2022-07-01T03:25:59;7.77;;;6.77;;
39864;SDS011;25538;48.392;9.976;2022-07-01T03:28:25;5.40;;;4.37;;
39864;SDS011;25538;48.392;9.976;2022-07-01T03:30:51;4.35;;;3.80;;
39864;SDS011;25538;48.392;9.976;2022-07-01T03:33:17;4.87;;;4.00;;
39864;SDS011;25538;48.392;9.976;2022-07-01T03:35:43;5.10;;;4.37;;
39864;SDS011;25538;48.392;9.976;2022-07-01T03:38:11;7.55;;;5.32;;
39864;SDS011;25538;48.392;9.976;2022-07-01T03:40:38;15.20;;;8.02;;
39864;SDS011;25538;48.392;9.976;2022-07-01T03:43:04;9.00;;;6.72;;
39864;SDS011;25538;48.392;9.976;2022-07-01T03:45:31;8.15;;;6.82;;
39864;SDS011;25538;48.392;9.976;2022-07-01T03:47:57;12.30;;;6.68;;
39864;SDS011;25538;48.392;9.976;2022-07-01T03:50:24;6.78;;;5.97;;
39864;SDS011;25538;48.392;9.976;2022-07-01T03:52:50;5.75;;;5.20;;
39864;SDS011;25538;48.392;9.976;2022-07-01T03:55:35;5.75;;;5.15;;
39864;SDS011;25538;48.392;9.976;2022-07-01T03:58:01;5.57;;;5.03;;
39864;SDS011;25538;48.392;9.976;2022-07-01T04:00:27;15.20;;;7.10;;
39864;SDS011;25538;48.392;9.976;2022-07-01T04:02:53;7.57;;;6.78;;
39864;SDS011;25538;48.392;9.976;2022-07-01T04:05:19;11.43;;;8.43;;
39864;SDS011;25538;48.392;9.976;2022-07-01T04:07:45;11.70;;;8.77;;
39864;SDS011;25538;48.392;9.976;2022-07-01T04:10:11;9.30;;;8.50;;
39864;SDS011;25538;48.392;9.976;2022-07-01T04:12:37;16.52;;;11.10;;
39864;SDS011;25538;48.392;9.976;2022-07-01T04:15:04;9.15;;;8.25;;
39864;SDS011;25538;48.392;9.976;2022-07-01T04:17:30;11.18;;;9.73;;
39864;SDS011;25538;48.392;9.976;2022-07-01T04:19:57;12.65;;;11.38;;
39864;SDS011;25538;48.392;9.976;2022-07-01T04:22:23;13.25;;;10.57;;
39864;SDS011;25538;48.392;9.976;2022-07-01T04:24:58;17.88;;;11.13;;
39864;SDS011;25538;48.392;9.976;2022-07-01T04:27:26;17.10;;;12.65;;
39864;SDS011;25538;48.392;9.976;2022-07-01T04:29:52;14.60;;;10.40;;
39864;SDS011;25538;48.392;9.976;2022-07-01T04:32:20;18.85;;;11.07;;
39864;SDS011;25538;48.392;9.976;2022-07-01T04:34:46;8.18;;;7.40;;
39864;SDS011;25538;48.392;9.976;2022-07-01T04:37:12;14.90;;;9.52;;
39864;SDS011;25538;48.392;9.976;2022-07-01T04:39:38;9.20;;;8.10;;
39864;SDS011;25538;48.392;9.976;2022-07-01T04:42:05;9.60;;;8.18;;
39864;SDS011;25538;48.392;9.976;2022-07-01T04:44:32;7.90;;;7.20;;
39864;SDS011;25538;48.392;9.976;2022-07-01T04:46:59;10.38;;;9.05;;
39864;SDS011;25538;48.392;9.976;2022-07-01T04:49:27;7.47;;;6.78;;
39864;SDS011;25538;48.392;9.976;2022-07-01T04:51:53;8.73;;;7.93;;
39864;SDS011;25538;48.392;9.976;2022-07-01T04:54:19;8.23;;;7.43;;
39864;SDS011;25538;48.392;9.976;2022-07-01T04:56:45;9.40;;;7.73;;
39864;SDS011;25538;48.392;9.976;2022-07-01T04:59:12;8.70;;;7.57;;
39864;SDS011;25538;48.392;9.976;2022-07-01T05:01:39;14.05;;;8.65;;
39864;SDS011;25538;48.392;9.976;2022-07-01T05:04:09;11.07;;;8.10;;
39864;SDS011;25538;48.392;9.976;2022-07-01T05:06:36;8.25;;;6.10;;
39864;SDS011;25538;48.392;9.976;2022-07-01T05:09:02;6.93;;;5.35;;
39864;SDS011;25538;48.392;9.976;2022-07-01T05:11:28;6.80;;;4.85;;
39864;SDS011;25538;48.392;9.976;2022-07-01T05:13:54;8.20;;;4.87;;
39864;SDS011;25538;48.392;9.976;2022-07-01T05:16:20;5.10;;;4.60;;
39864;SDS011;25538;48.392;9.976;2022-07-01T05:18:46;4.40;;;3.87;;
39864;SDS011;25538;48.392;9.976;2022-07-01T05:21:30;6.03;;;4.80;;
39864;SDS011;25538;48.392;9.976;2022-07-01T05:24:15;4.78;;;4.03;;
39864;SDS011;25538;48.392;9.976;2022-07-01T05:26:41;6.55;;;5.50;;
39864;SDS011;25538;48.392;9.976;2022-07-01T05:29:10;5.60;;;5.20;;
39864;SDS011;25538;48.392;9.976;2022-07-01T05:31:36;5.35;;;4.25;;
39864;SDS011;25538;48.392;9.976;2022-07-01T05:34:02;9.70;;;4.95;;
39864;SDS011;25538;48.392;9.976;2022-07-01T05:36:28;9.13;;;3.70;;
39864;SDS011;25538;48.392;9.976;2022-07-01T05:38:54;3.17;;;2.97;;
39864;SDS011;25538;48.392;9.976;2022-07-01T05:41:20;5.18;;;4.28;;
39864;SDS011;25538;48.392;9.976;2022-07-01T05:43:46;3.13;;;2.90;;
39864;SDS011;25538;48.392;9.976;2022-07-01T05:46:12;5.80;;;3.77;;
39864;SDS011;25538;48.392;9.976;2022-07-01T05:48:38;4.07;;;3.10;;
39864;SDS011;25538;48.392;9.976;2022-07-01T05:51:04;4.70;;;3.93;;
39864;SDS011;25538;48.392;9.976;2022-07-01T05:53:31;9.43;;;4.35;;
39864;SDS011;25538;48.392;9.976;2022-07-01T05:55:57;16.97;;;6.23;;
39864;SDS011;25538;48.392;9.976;2022-07-01T05:58:23;6.73;;;3.87;;
39864;SDS011;25538;48.392;9.976;2022-07-01T06:00:49;3.10;;;2.90;;
39864;SDS011;25538;48.392;9.976;2022-07-01T06:03:15;3.53;;;3.10;;
39864;SDS011;25538;48.392;9.976;2022-07-01T06:05:42;4.18;;;3.20;;
39864;SDS011;25538;48.392;9.976;2022-07-01T06:08:08;2.92;;;2.72;;
39864;SDS011;25538;48.392;9.976;2022-07-01T06:10:34;3.30;;;3.10;;
39864;SDS011;25538;48.392;9.976;2022-07-01T06:13:01;3.38;;;3.08;;
39864;SDS011;25538;48.392;9.976;2022-07-01T06:15:28;2.28;;;2.13;;
39864;SDS011;25538;48.392;9.976;2022-07-01T06:17:54;2.05;;;1.95;;
39864;SDS011;25538;48.392;9.976;2022-07-01T06:20:21;2.38;;;2.28;;
39864;SDS011;25538;48.392;9.976;2022-07-01T06:22:48;1.55;;;1.45;;
39864;SDS011;25538;48.392;9.976;2022-07-01T06:25:13;2.53;;;2.43;;
39864;SDS011;25538;48.392;9.976;2022-07-01T06:27:40;2.65;;;2.45;;
39864;SDS011;25538;48.392;9.976;2022-07-01T06:30:08;2.38;;;2.20;;
39864;SDS011;25538;48.392;9.976;2022-07-01T06:32:35;1.90;;;1.80;;
39864;SDS011;25538;48.392;9.976;2022-07-01T06:35:02;1.83;;;1.73;;
39864;SDS011;25538;48.392;9.976;2022-07-01T06:37:28;2.88;;;2.75;;
39864;SDS011;25538;48.392;9.976;2022-07-01T06:39:58;2.97;;;2.78;;
39864;SDS011;25538;48.392;9.976;2022-07-01T06:42:24;3.67;;;2.33;;
39864;SDS011;25538;48.392;9.976;2022-07-01T06:44:50;3.27;;;3.00;;
39864;SDS011;25538;48.392;9.976;2022-07-01T06:47:16;2.33;;;2.23;;
39864;SDS011;25538;48.392;9.976;2022-07-01T06:49:41;3.40;;;1.77;;
39864;SDS011;25538;48.392;9.976;2022-07-01T06:52:07;2.90;;;2.47;;
39864;SDS011;25538;48.392;9.976;2022-07-01T06:54:33;2.33;;;2.13;;
39864;SDS011;25538;48.392;9.976;2022-07-01T06:57:05;6.40;;;2.25;;
39864;SDS011;25538;48.392;9.976;2022-07-01T06:59:32;2.33;;;2.13;;
39864;SDS011;25538;48.392;9.976;2022-07-01T07:01:58;2.80;;;2.40;;
39864;SDS011;25538;48.392;9.976;2022-07-01T07:04:24;1.97;;;1.87;;
39864;SDS011;25538;48.392;9.976;2022-07-01T07:06:50;2.95;;;1.73;;
39864;SDS011;25538;48.392;9.976;2022-07-01T07:09:16;3.55;;;2.42;;
39864;SDS011;25538;48.392;9.976;2022-07-01T07:11:42;2.40;;;2.20;;
39864;SDS011;25538;48.392;9.976;2022-07-01T07:14:08;1.40;;;1.30;;
39864;SDS011;25538;48.392;9.976;2022-07-01T07:16:34;2.50;;;2.00;;
39864;SDS011;25538;48.392;9.976;2022-07-01T07:19:00;2.83;;;2.40;;
39864;SDS011;25538;48.392;9.976;2022-07-01T07:21:26;3.13;;;2.83;;
39864;SDS011;25538;48.392;9.976;2022-07-01T07:23:52;5.30;;;3.60;;
39864;SDS011;25538;48.392;9.976;2022-07-01T07:26:18;3.57;;;3.27;;
39864;SDS011;25538;48.392;9.976;2022-07-01T07:28:44;5.20;;;4.70;;
39864;SDS011;25538;48.392;9.976;2022-07-01T07:31:10;3.93;;;3.63;;
39864;SDS011;25538;48.392;9.976;2022-07-01T07:33:36;2.83;;;2.63;;
39864;SDS011;25538;48.392;9.976;2022-07-01T07:36:02;5.37;;;4.87;;
39864;SDS011;25538;48.392;9.976;2022-07-01T07:38:28;5.20;;;2.97;;
39864;SDS011;25538;48.392;9.976;2022-07-01T07:40:54;6.70;;;6.20;;
39864;SDS011;25538;48.392;9.976;2022-07-01T07:43:19;2.03;;;1.73;;
39864;SDS011;25538;48.392;9.976;2022-07-01T07:45:45;7.13;;;6.53;;
39864;SDS011;25538;48.392;9.976;2022-07-01T07:48:11;2.40;;;2.20;;
39864;SDS011;25538;48.392;9.976;2022-07-01T07:50:37;1.60;;;1.50;;
39864;SDS011;25538;48.392;9.976;2022-07-01T07:53:03;1.83;;;1.73;;
39864;SDS011;25538;48.392;9.976;2022-07-01T07:55:29;1.80;;;1.73;;
39864;SDS011;25538;48.392;9.976;2022-07-01T07:57:55;2.70;;;1.90;;
39864;SDS011;25538;48.392;9.976;2022-07-01T08:00:21;1.77;;;1.67;;
39864;SDS011;25538;48.392;9.976;2022-07-01T08:02:47;2.75;;;2.55;;
39864;SDS011;25538;48.392;9.976;2022-07-01T08:05:13;2.53;;;2.33;;
39864;SDS011;25538;48.392;9.976;2022-07-01T08:07:40;3.08;;;2.20;;
39864;SDS011;25538;48.392;9.976;2022-07-01T08:10:08;5.18;;;3.35;;
39864;SDS011;25538;48.392;9.976;2022-07-01T08:12:36;2.33;;;2.03;;
39864;SDS011;25538;48.392;9.976;2022-07-01T08:15:02;3.67;;;1.50;;
39864;SDS011;25538;48.392;9.976;2022-07-01T08:17:29;1.30;;;1.20;;
39864;SDS011;25538;48.392;9.976;2022-07-01T08:19:55;1.40;;;1.40;;
39864;SDS011;25538;48.392;9.976;2022-07-01T08:22:22;1.40;;;1.40;;
39864;SDS011;25538;48.392;9.976;2022-07-01T08:24:47;3.00;;;1.70;;
39864;SDS011;25538;48.392;9.976;2022-07-01T08:27:13;3.30;;;1.57;;
39864;SDS011;25538;48.392;9.976;2022-07-01T08:29:39;2.63;;;2.42;;
39864;SDS011;25538;48.392;9.976;2022-07-01T08:32:06;27.90;;;6.70;;
39864;SDS011;25538;48.392;9.976;2022-07-01T08:34:32;1.70;;;1.60;;
39864;SDS011;25538;48.392;9.976;2022-07-01T08:37:00;2.35;;;2.22;;
39864;SDS011;25538;48.392;9.976;2022-07-01T08:39:26;1.77;;;1.65;;
39864;SDS011;25538;48.392;9.976;2022-07-01T08:41:52;2.07;;;1.67;;
39864;SDS011;25538;48.392;9.976;2022-07-01T08:44:18;1.40;;;1.33;;
39864;SDS011;25538;48.392;9.976;2022-07-01T08:46:45;1.67;;;1.58;;
39864;SDS011;25538;48.392;9.976;2022-07-01T08:49:12;1.40;;;1.33;;
39864;SDS011;25538;48.392;9.976;2022-07-01T08:51:39;1.50;;;1.40;;
39864;SDS011;25538;48.392;9.976;2022-07-01T08:54:04;1.63;;;1.50;;
39864;SDS011;25538;48.392;9.976;2022-07-01T08:56:30;2.23;;;1.63;;
39864;SDS011;25538;48.392;9.976;2022-07-01T08:59:12;1.85;;;1.42;;
39864;SDS011;25538;48.392;9.976;2022-07-01T09:01:46;1.50;;;1.40;;
39864;SDS011;25538;48.392;9.976;2022-07-01T09:04:24;1.75;;;1.55;;
39864;SDS011;25538;48.392;9.976;2022-07-01T09:06:50;1.95;;;1.83;;
39864;SDS011;25538;48.392;9.976;2022-07-01T09:09:17;2.08;;;1.98;;
39864;SDS011;25538;48.392;9.976;2022-07-01T09:11:49;1.83;;;1.70;;
39864;SDS011;25538;48.392;9.976;2022-07-01T09:14:25;1.85;;;1.33;;
39864;SDS011;25538;48.392;9.976;2022-07-01T09:16:54;1.38;;;1.17;;
39864;SDS011;25538;48.392;9.976;2022-07-01T09:19:26;1.60;;;1.50;;
39864;SDS011;25538;48.392;9.976;2022-07-01T09:21:57;2.33;;;1.98;;
39864;SDS011;25538;48.392;9.976;2022-07-01T09:27:08;1.77;;;1.67;;
39864;SDS011;25538;48.392;9.976;2022-07-01T09:32:12;1.45;;;1.40;;
39864;SDS011;25538;48.392;9.976;2022-07-01T09:34:40;1.92;;;1.40;;
39864;SDS011;25538;48.392;9.976;2022-07-01T09:37:07;3.25;;;1.83;;
39864;SDS011;25538;48.392;9.976;2022-07-01T09:39:47;3.63;;;2.20;;
39864;SDS011;25538;48.392;9.976;2022-07-01T09:42:18;2.30;;;2.00;;
39864;SDS011;25538;48.392;9.976;2022-07-01T09:47:24;2.08;;;1.95;;
39864;SDS011;25538;48.392;9.976;2022-07-01T09:49:51;2.15;;;1.50;;
39864;SDS011;25538;48.392;9.976;2022-07-01T09:52:17;1.63;;;1.52;;
39864;SDS011;25538;48.392;9.976;2022-07-01T09:54:47;1.38;;;1.27;;
39864;SDS011;25538;48.392;9.976;2022-07-01T09:57:16;1.17;;;1.08;;
39864;SDS011;25538;48.392;9.976;2022-07-01T09:59:43;1.30;;;1.30;;
39864;SDS011;25538;48.392;9.976;2022-07-01T10:02:10;3.08;;;1.90;;
39864;SDS011;25538;48.392;9.976;2022-07-01T10:04:37;1.55;;;1.45;;
39864;SDS011;25538;48.392;9.976;2022-07-01T10:12:48;2.33;;;1.30;;
39864;SDS011;25538;48.392;9.976;2022-07-01T10:15:17;1.85;;;1.75;;
39864;SDS011;25538;48.392;9.976;2022-07-01T10:17:45;2.40;;;1.30;;
39864;SDS011;25538;48.392;9.976;2022-07-01T10:20:14;1.30;;;1.20;;
39864;SDS011;25538;48.392;9.976;2022-07-01T10:22:43;1.80;;;1.70;;
39864;SDS011;25538;48.392;9.976;2022-07-01T10:33:40;1.50;;;1.40;;
39864;SDS011;25538;48.392;9.976;2022-07-01T10:36:07;1.90;;;1.73;;
39864;SDS011;25538;48.392;9.976;2022-07-01T10:38:35;2.70;;;1.98;;
39864;SDS011;25538;48.392;9.976;2022-07-01T10:41:28;1.70;;;1.38;;
39864;SDS011;25538;48.392;9.976;2022-07-01T10:43:54;1.50;;;1.40;;
39864;SDS011;25538;48.392;9.976;2022-07-01T10:49:57;1.80;;;1.70;;
39864;SDS011;25538;48.392;9.976;2022-07-01T10:52:17;1.85;;;1.25;;
39864;SDS011;25538;48.392;9.976;2022-07-01T11:07:28;1.80;;;1.40;;
39864;SDS011;25538;48.392;9.976;2022-07-01T11:09:59;1.48;;;1.38;;
39864;SDS011;25538;48.392;9.976;2022-07-01T11:12:29;1.60;;;1.10;;
39864;SDS011;25538;48.392;9.976;2022-07-01T11:14:57;1.42;;;1.33;;
39864;SDS011;25538;48.392;9.976;2022-07-01T11:17:25;1.15;;;1.15;;
39864;SDS011;25538;48.392;9.976;2022-07-01T11:19:52;2.65;;;1.95;;
39864;SDS011;25538;48.392;9.976;2022-07-01T11:22:22;2.45;;;1.88;;
39864;SDS011;25538;48.392;9.976;2022-07-01T11:25:01;6.53;;;2.58;;
39864;SDS011;25538;48.392;9.976;2022-07-01T11:27:34;5.03;;;4.63;;
39864;SDS011;25538;48.392;9.976;2022-07-01T11:30:08;2.83;;;2.63;;
39864;SDS011;25538;48.392;9.976;2022-07-01T11:32:38;1.95;;;1.85;;
39864;SDS011;25538;48.392;9.976;2022-07-01T11:35:07;2.20;;;2.00;;
39864;SDS011;25538;48.392;9.976;2022-07-01T11:38:10;8.23;;;2.00;;
39864;SDS011;25538;48.392;9.976;2022-07-01T11:41:00;2.30;;;2.10;;
39864;SDS011;25538;48.392;9.976;2022-07-01T11:43:29;1.80;;;1.70;;
39864;SDS011;25538;48.392;9.976;2022-07-01T11:45:58;35.05;;;4.50;;
39864;SDS011;25538;48.392;9.976;2022-07-01T11:48:37;1.83;;;1.73;;
39864;SDS011;25538;48.392;9.976;2022-07-01T11:51:09;1.30;;;1.30;;
39864;SDS011;25538;48.392;9.976;2022-07-01T11:53:43;3.35;;;1.92;;
39864;SDS011;25538;48.392;9.976;2022-07-01T11:56:10;1.50;;;1.50;;
39864;SDS011;25538;48.392;9.976;2022-07-01T11:58:47;1.90;;;1.80;;
39864;SDS011;25538;48.392;9.976;2022-07-01T12:01:21;1.63;;;1.33;;
39864;SDS011;25538;48.392;9.976;2022-07-01T12:03:47;1.95;;;1.80;;
39864;SDS011;25538;48.392;9.976;2022-07-01T12:06:13;2.40;;;1.60;;
39864;SDS011;25538;48.392;9.976;2022-07-01T12:08:40;2.45;;;1.70;;
39864;SDS011;25538;48.392;9.976;2022-07-01T12:11:08;3.00;;;1.50;;
39864;SDS011;25538;48.392;9.976;2022-07-01T12:13:34;1.60;;;1.40;;
39864;SDS011;25538;48.392;9.976;2022-07-01T12:16:05;1.40;;;1.30;;
39864;SDS011;25538;48.392;9.976;2022-07-01T12:18:32;2.00;;;1.90;;
39864;SDS011;25538;48.392;9.976;2022-07-01T12:20:58;1.95;;;1.58;;
39864;SDS011;25538;48.392;9.976;2022-07-01T12:23:25;5.18;;;2.70;;
39864;SDS011;25538;48.392;9.976;2022-07-01T12:25:51;6.30;;;2.13;;
39864;SDS011;25538;48.392;9.976;2022-07-01T12:31:19;4.13;;;3.80;;
39864;SDS011;25538;48.392;9.976;2022-07-01T12:33:49;1.90;;;1.80;;
39864;SDS011;25538;48.392;9.976;2022-07-01T12:36:16;10.63;;;2.47;;
39864;SDS011;25538;48.392;9.976;2022-07-01T12:38:44;5.00;;;2.23;;
39864;SDS011;25538;48.392;9.976;2022-07-01T12:44:22;1.67;;;1.13;;
39864;SDS011;25538;48.392;9.976;2022-07-01T12:46:50;1.20;;;1.20;;
39864;SDS011;25538;48.392;9.976;2022-07-01T12:49:23;1.80;;;1.70;;
39864;SDS011;25538;48.392;9.976;2022-07-01T12:51:50;1.30;;;1.30;;
39864;SDS011;25538;48.392;9.976;2022-07-01T12:54:51;1.37;;;1.27;;
39864;SDS011;25538;48.392;9.976;2022-07-01T12:57:09;2.00;;;1.90;;
39864;SDS011;25538;48.392;9.976;2022-07-01T12:59:35;1.73;;;1.63;;
39864;SDS011;25538;48.392;9.976;2022-07-01T13:02:01;1.40;;;1.30;;
39864;SDS011;25538;48.392;9.976;2022-07-01T13:04:28;4.30;;;1.67;;
39864;SDS011;25538;48.392;9.976;2022-07-01T13:06:54;1.30;;;1.30;;
39864;SDS011;25538;48.392;9.976;2022-07-01T13:09:20;1.30;;;1.10;;
39864;SDS011;25538;48.392;9.976;2022-07-01T13:11:46;2.07;;;1.33;;
39864;SDS011;25538;48.392;9.976;2022-07-01T13:14:12;1.60;;;1.50;;
39864;SDS011;25538;48.392;9.976;2022-07-01T13:16:38;1.43;;;1.33;;
39864;SDS011;25538;48.392;9.976;2022-07-01T13:19:04;1.33;;;1.00;;
39864;SDS011;25538;48.392;9.976;2022-07-01T13:21:30;1.80;;;1.67;;
39864;SDS011;25538;48.392;9.976;2022-07-01T13:23:56;1.40;;;1.40;;
39864;SDS011;25538;48.392;9.976;2022-07-01T13:26:22;2.93;;;1.97;;
39864;SDS011;25538;48.392;9.976;2022-07-01T13:28:48;1.57;;;1.47;;
39864;SDS011;25538;48.392;9.976;2022-07-01T13:31:14;2.00;;;1.90;;
39864;SDS011;25538;48.392;9.976;2022-07-01T13:33:40;3.33;;;2.90;;
39864;SDS011;25538;48.392;9.976;2022-07-01T13:36:06;2.20;;;2.00;;
39864;SDS011;25538;48.392;9.976;2022-07-01T13:38:31;2.43;;;2.30;;
39864;SDS011;25538;48.392;9.976;2022-07-01T13:40:57;4.00;;;2.73;;
39864;SDS011;25538;48.392;9.976;2022-07-01T13:43:23;2.67;;;2.47;;
39864;SDS011;25538;48.392;9.976;2022-07-01T13:45:49;2.97;;;2.77;;
39864;SDS011;25538;48.392;9.976;2022-07-01T13:48:15;3.00;;;2.77;;
39864;SDS011;25538;48.392;9.976;2022-07-01T13:50:41;3.57;;;3.37;;
39864;SDS011;25538;48.392;9.976;2022-07-01T13:53:07;3.80;;;3.50;;
39864;SDS011;25538;48.392;9.976;2022-07-01T13:55:33;2.90;;;2.70;;
39864;SDS011;25538;48.392;9.976;2022-07-01T13:57:59;2.80;;;2.40;;
39864;SDS011;25538;48.392;9.976;2022-07-01T14:00:25;4.10;;;3.83;;
39864;SDS011;25538;48.392;9.976;2022-07-01T14:02:51;2.23;;;2.03;;
39864;SDS011;25538;48.392;9.976;2022-07-01T14:05:17;1.90;;;1.80;;
39864;SDS011;25538;48.392;9.976;2022-07-01T14:07:43;1.90;;;1.80;;
39864;SDS011;25538;48.392;9.976;2022-07-01T14:10:10;3.87;;;2.20;;
39864;SDS011;25538;48.392;9.976;2022-07-01T14:12:36;3.10;;;2.90;;
39864;SDS011;25538;48.392;9.976;2022-07-01T14:15:02;1.80;;;1.70;;
39864;SDS011;25538;48.392;9.976;2022-07-01T14:17:28;2.10;;;2.00;;
39864;SDS011;25538;48.392;9.976;2022-07-01T14:19:54;1.87;;;1.77;;
39864;SDS011;25538;48.392;9.976;2022-07-01T14:22:22;2.10;;;2.00;;
39864;SDS011;25538;48.392;9.976;2022-07-01T14:24:48;2.33;;;1.80;;
39864;SDS011;25538;48.392;9.976;2022-07-01T14:27:14;1.63;;;1.53;;
39864;SDS011;25538;48.392;9.976;2022-07-01T14:29:40;2.00;;;1.90;;
39864;SDS011;25538;48.392;9.976;2022-07-01T14:32:06;1.70;;;1.60;;
39864;SDS011;25538;48.392;9.976;2022-07-01T14:34:32;1.70;;;1.60;;
39864;SDS011;25538;48.392;9.976;2022-07-01T14:36:58;1.90;;;1.50;;
39864;SDS011;25538;48.392;9.976;2022-07-01T14:39:24;2.40;;;2.30;;
39864;SDS011;25538;48.392;9.976;2022-07-01T14:41:50;2.37;;;2.10;;
39864;SDS011;25538;48.392;9.976;2022-07-01T14:44:17;2.13;;;1.90;;
39864;SDS011;25538;48.392;9.976;2022-07-01T14:46:43;2.10;;;2.00;;
39864;SDS011;25538;48.392;9.976;2022-07-01T14:49:09;1.90;;;1.80;;
39864;SDS011;25538;48.392;9.976;2022-07-01T14:51:35;4.20;;;3.10;;
39864;SDS011;25538;48.392;9.976;2022-07-01T14:54:01;2.10;;;2.00;;
39864;SDS011;25538;48.392;9.976;2022-07-01T14:56:27;2.90;;;2.80;;
39864;SDS011;25538;48.392;9.976;2022-07-01T14:58:53;2.93;;;2.30;;
39864;SDS011;25538;48.392;9.976;2022-07-01T15:01:18;1.90;;;1.80;;
39864;SDS011;25538;48.392;9.976;2022-07-01T15:03:44;2.40;;;2.30;;
39864;SDS011;25538;48.392;9.976;2022-07-01T15:06:10;2.30;;;2.10;;
39864;SDS011;25538;48.392;9.976;2022-07-01T15:08:36;2.30;;;2.10;;
39864;SDS011;25538;48.392;9.976;2022-07-01T15:11:03;2.90;;;2.73;;
39864;SDS011;25538;48.392;9.976;2022-07-01T15:13:29;2.60;;;2.50;;
39864;SDS011;25538;48.392;9.976;2022-07-01T15:15:59;2.40;;;2.30;;
39864;SDS011;25538;48.392;9.976;2022-07-01T15:18:30;4.00;;;3.80;;
39864;SDS011;25538;48.392;9.976;2022-07-01T15:20:57;5.57;;;5.27;;
39864;SDS011;25538;48.392;9.976;2022-07-01T15:23:23;10.33;;;9.63;;
39864;SDS011;25538;48.392;9.976;2022-07-01T15:25:49;11.70;;;10.90;;
39864;SDS011;25538;48.392;9.976;2022-07-01T15:28:15;13.90;;;12.90;;